Time;durP1;ratioP1;P1;durP2;ratioP2;P2;SDS_P1;SDS_P2;PMS_P1;PMS_P2;Temp;Humidity;BMP_temperature;BMP_pressure;BME280_temperature;BME280_humidity;BME280_pressure;Samples;Min_cycle;Max_cycle;Signal;HPM_P1;HPM_P2
2023/03/22 00:00:16;;;;;;;;;68.67;53.00;;;;;12.89;41.21;99198.53;5085980;28;9034;-77
2023/03/22 00:03:05;;;;;;;;;65.67;52.67;;;;;12.87;41.19;99195.09;5058603;28;9029;-79
2023/03/22 00:05:34;;;;;;;;;67.33;53.67;;;;;12.83;41.58;99185.53;5086548;28;9105;-79
2023/03/22 00:08:06;;;;;;;;;63.75;51.25;;;;;12.77;41.41;99185.72;5074652;28;8967;-77
2023/03/22 00:10:36;;;;;;;;;60.75;50.50;;;;;12.73;41.29;99184.97;5100323;28;8966;-78
2023/03/22 00:13:09;;;;;;;;;63.75;52.00;;;;;12.62;41.57;99181.88;5073017;28;8837;-79
2023/03/22 00:15:38;;;;;;;;;63.00;51.25;;;;;12.54;41.41;99183.00;5070275;28;8896;-78
2023/03/22 00:18:07;;;;;;;;;63.25;49.00;;;;;12.46;41.02;99179.75;5083074;28;8843;-79
2023/03/22 00:20:38;;;;;;;;;60.25;49.00;;;;;12.42;41.56;99175.50;5076987;28;8970;-78
2023/03/22 00:23:07;;;;;;;;;56.50;46.25;;;;;12.35;41.54;99174.00;5088628;28;8883;-78
2023/03/22 00:25:36;;;;;;;;;53.25;41.75;;;;;12.18;40.57;99177.19;5078626;28;8846;-79
2023/03/22 00:28:06;;;;;;;;;50.00;39.25;;;;;12.09;40.07;99172.28;5083478;28;8904;-79
2023/03/22 00:30:36;;;;;;;;;41.75;37.50;;;;;11.94;40.44;99174.47;5066917;28;8834;-79
2023/03/22 00:33:05;;;;;;;;;50.75;40.75;;;;;11.77;40.82;99172.34;5050175;28;8884;-78
2023/03/22 00:35:34;;;;;;;;;52.75;42.25;;;;;11.25;41.82;99173.09;5049760;28;8900;-80
2023/03/22 00:38:12;;;;;;;;;49.25;40.75;;;;;11.04;42.42;99169.34;5000297;28;8806;-78
2023/03/22 00:40:43;;;;;;;;;40.25;36.75;;;;;11.25;41.44;99158.16;5015195;28;8846;-77
2023/03/22 00:43:13;;;;;;;;;44.75;38.50;;;;;11.54;41.45;99153.78;5067615;28;8878;-78
2023/03/22 00:45:42;;;;;;;;;37.25;35.50;;;;;11.31;41.29;99155.38;5068030;28;8862;-78
2023/03/22 00:48:12;;;;;;;;;40.00;35.75;;;;;10.48;43.13;99167.34;5065896;28;8882;-78
2023/03/22 00:50:41;;;;;;;;;49.50;40.50;;;;;9.69;44.71;99178.91;5066541;28;8866;-78
2023/03/22 00:53:09;;;;;;;;;42.25;38.25;;;;;9.46;46.05;99171.53;5066557;28;8959;-78
2023/03/22 00:55:38;;;;;;;;;44.75;38.50;;;;;9.65;45.70;99172.91;5032409;28;8830;-78
2023/03/22 00:58:07;;;;;;;;;23.25;21.00;;;;;9.89;45.42;99165.34;5045263;28;8955;-79
2023/03/22 01:00:38;;;;;;;;;31.50;30.00;;;;;10.30;44.33;99164.28;5016067;28;8846;-79
2023/03/22 01:03:07;;;;;;;;;44.00;37.75;;;;;10.61;43.32;99158.22;5083184;28;8846;-77
2023/03/22 01:05:37;;;;;;;;;37.75;36.25;;;;;10.74;42.55;99150.88;5083483;28;8912;-79
2023/03/22 01:08:08;;;;;;;;;45.75;37.25;;;;;10.65;43.06;99157.25;5034713;28;8967;-78
2023/03/22 01:10:37;;;;;;;;;44.25;36.50;;;;;10.89;42.85;99141.72;5086918;28;8839;-79
2023/03/22 01:13:07;;;;;;;;;51.00;40.75;;;;;10.95;42.82;99141.53;5069695;28;8856;-77
2023/03/22 01:15:38;;;;;;;;;52.00;41.50;;;;;11.12;43.12;99147.19;5068725;28;8965;-76
2023/03/22 01:18:06;;;;;;;;;58.50;45.50;;;;;11.36;42.59;99142.06;5085122;28;8851;-78
2023/03/22 01:20:36;;;;;;;;;56.75;46.50;;;;;11.55;42.77;99143.22;5067535;28;9655;-77
2023/03/22 01:23:05;;;;;;;;;58.00;48.50;;;;;11.72;42.17;99140.03;5084464;28;8895;-79
2023/03/22 01:25:34;;;;;;;;;59.50;48.25;;;;;11.87;41.78;99143.13;5072438;28;8836;-78
2023/03/22 01:28:02;;;;;;;;;48.25;42.00;;;;;11.95;41.61;99135.81;5078918;28;8890;-78
2023/03/22 01:30:31;;;;;;;;;57.50;48.50;;;;;12.05;41.75;99137.25;5072350;28;8827;-78
2023/03/22 01:33:02;;;;;;;;;59.75;46.00;;;;;12.14;41.75;99133.44;5055656;28;8933;-76
2023/03/22 01:35:32;;;;;;;;;60.00;50.00;;;;;12.19;41.41;99139.41;5088967;28;8851;-76
2023/03/22 01:38:01;;;;;;;;;60.00;49.50;;;;;12.24;41.03;99129.59;5058219;28;8866;-77
2023/03/22 01:40:30;;;;;;;;;58.00;46.50;;;;;12.28;40.99;99131.19;5074814;28;9677;-76
2023/03/22 01:43:00;;;;;;;;;58.25;48.00;;;;;12.31;40.89;99128.44;5059515;28;8864;-77
2023/03/22 01:45:40;;;;;;;;;58.25;48.75;;;;;12.41;40.81;99138.66;5088871;28;8860;-77
2023/03/22 01:48:19;;;;;;;;;57.50;45.25;;;;;12.34;40.70;99138.88;5085980;28;8965;-77
2023/03/22 01:50:58;;;;;;;;;54.00;44.25;;;;;12.22;40.60;99136.69;5048845;28;8893;-78
2023/03/22 01:53:32;;;;;;;;;52.25;43.25;;;;;12.14;40.59;99133.44;5090329;28;8852;-77
2023/03/22 01:56:02;;;;;;;;;53.00;44.25;;;;;12.07;40.63;99153.88;5080024;28;8882;-77
2023/03/22 01:58:35;;;;;;;;;52.50;43.00;;;;;12.01;41.32;99146.16;5077000;28;8865;-79
2023/03/22 02:01:08;;;;;;;;;60.25;47.50;;;;;11.97;41.45;99144.53;5089100;28;8852;-77
2023/03/22 02:03:51;;;;;;;;;57.00;46.75;;;;;11.96;41.71;99148.09;5078708;28;8858;-78
2023/03/22 02:06:21;;;;;;;;;61.25;50.25;;;;;11.84;41.78;99135.31;5070996;28;8847;-80
2023/03/22 02:08:57;;;;;;;;;57.25;48.00;;;;;11.79;42.11;99142.50;5057361;28;8862;-77
2023/03/22 02:11:32;;;;;;;;;54.50;45.25;;;;;11.75;41.96;99134.69;5077121;28;8855;-79
2023/03/22 02:14:25;;;;;;;;;57.50;46.25;;;;;11.80;42.13;99129.25;5075493;28;8871;-76
2023/03/22 02:17:21;;;;;;;;;40.75;36.00;;;;;11.73;42.14;99131.25;5002408;28;8853;-76
2023/03/22 02:20:36;;;;;;;;;52.25;43.25;;;;;11.71;41.95;99135.69;5008419;28;8974;-78
2023/03/22 02:23:43;;;;;;;;;55.00;45.75;;;;;11.65;42.29;99135.03;4993700;28;8891;-78
2023/03/22 02:26:45;;;;;;;;;44.50;39.50;;;;;11.59;41.83;99132.59;4949287;28;9605;-80
2023/03/22 02:29:21;;;;;;;;;55.50;45.75;;;;;11.40;42.39;99142.84;4930963;28;8901;-77
2023/03/22 02:32:32;;;;;;;;;54.00;42.50;;;;;11.45;42.17;99141.78;4926178;28;8870;-79
2023/03/22 02:35:33;;;;;;;;;53.75;45.50;;;;;11.43;41.87;99150.66;4879315;29;8917;-78
2023/03/22 02:38:36;;;;;;;;;54.00;44.25;;;;;11.33;42.76;99142.16;4851329;29;8868;-77
2023/03/22 02:41:14;;;;;;;;;44.75;38.75;;;;;11.22;42.89;99139.88;4838928;29;8877;-77
2023/03/22 02:43:55;;;;;;;;;49.25;42.00;;;;;11.12;42.86;99139.28;4839116;29;8865;-77
2023/03/22 02:46:30;;;;;;;;;40.00;37.25;;;;;11.09;42.99;99146.41;4823295;29;8887;-77
2023/03/22 02:49:06;;;;;;;;;53.75;41.50;;;;;11.00;43.44;99150.16;4804043;29;8984;-78
2023/03/22 02:51:41;;;;;;;;;53.75;43.75;;;;;10.97;43.42;99145.84;4853392;29;8899;-77
2023/03/22 02:54:18;;;;;;;;;48.50;42.00;;;;;10.94;43.63;99150.34;4799923;29;8900;-77
2023/03/22 02:56:54;;;;;;;;;46.00;40.00;;;;;10.90;43.41;99144.28;4818322;29;9675;-76
2023/03/22 02:59:25;;;;;;;;;46.75;38.50;;;;;10.88;43.78;99138.22;4833623;29;8972;-77
2023/03/22 03:01:58;;;;;;;;;47.25;40.50;;;;;10.83;43.48;99147.16;4836554;29;8889;-78
2023/03/22 03:04:31;;;;;;;;;49.50;41.25;;;;;10.82;43.68;99145.41;4882416;29;8891;-78
2023/03/22 03:07:06;;;;;;;;;42.50;38.25;;;;;10.79;43.90;99144.59;4879749;29;8934;-77
2023/03/22 03:09:36;;;;;;;;;47.75;40.00;;;;;10.73;43.70;99152.66;4894992;29;8859;-80
2023/03/22 03:12:14;;;;;;;;;51.00;41.00;;;;;10.77;43.81;99142.94;4891869;29;9684;-76
2023/03/22 03:14:43;;;;;;;;;47.75;38.75;;;;;10.63;44.05;99150.28;4946074;28;8856;-80
2023/03/22 03:17:25;;;;;;;;;44.50;38.50;;;;;10.71;43.84;99151.81;5025194;28;8867;-78
2023/03/22 03:20:11;;;;;;;;;43.25;38.75;;;;;10.65;44.32;99154.63;5022572;28;8931;-77
2023/03/22 03:22:55;;;;;;;;;50.75;42.25;;;;;10.63;44.18;99151.13;5044555;28;8924;-78
2023/03/22 03:25:33;;;;;;;;;45.25;38.50;;;;;10.55;44.15;99153.97;5013568;28;8850;-77
2023/03/22 03:28:10;;;;;;;;;46.75;41.00;;;;;10.51;44.18;99156.75;5046491;28;8873;-78
2023/03/22 03:30:46;;;;;;;;;49.75;38.25;;;;;10.42;44.56;99152.59;5013594;28;8965;-77
2023/03/22 03:33:20;;;;;;;;;51.75;43.75;;;;;10.38;44.73;99164.94;5025584;28;8842;-78
2023/03/22 03:35:54;;;;;;;;;46.25;38.25;;;;;10.31;44.79;99163.41;5010258;28;8852;-78
2023/03/22 03:38:28;;;;;;;;;42.25;37.50;;;;;10.30;44.95;99166.06;5027089;28;8849;-77
2023/03/22 03:41:03;;;;;;;;;48.00;40.75;;;;;10.20;45.00;99165.44;5033983;28;8970;-77
2023/03/22 03:43:36;;;;;;;;;40.50;36.25;;;;;10.10;45.35;99171.81;5062864;28;8874;-78
2023/03/22 03:46:07;;;;;;;;;52.25;44.00;;;;;10.11;45.16;99170.94;5030395;28;9707;-77
2023/03/22 03:48:42;;;;;;;;;41.50;38.00;;;;;10.15;45.34;99175.19;5025885;28;8888;-78
2023/03/22 03:51:11;;;;;;;;;37.25;31.25;;;;;9.82;46.04;99169.88;5039172;28;8842;-77
2023/03/22 03:53:41;;;;;;;;;33.50;31.25;;;;;9.90;45.66;99165.31;5067957;28;8870;-78
2023/03/22 03:56:10;;;;;;;;;46.50;38.50;;;;;9.98;45.58;99170.34;5050836;28;8862;-78
2023/03/22 03:58:45;;;;;;;;;45.00;36.75;;;;;9.82;45.94;99176.00;5067588;28;8881;-78
2023/03/22 04:01:18;;;;;;;;;45.50;39.75;;;;;9.89;45.81;99168.81;5066084;28;8970;-79
2023/03/22 04:03:57;;;;;;;;;39.75;38.00;;;;;9.99;45.51;99174.72;5086751;28;8855;-79
2023/03/22 04:06:42;;;;;;;;;48.00;38.75;;;;;9.97;45.63;99180.00;5087319;28;8868;-78
2023/03/22 04:09:17;;;;;;;;;48.00;41.75;;;;;10.01;45.60;99176.41;5066890;28;8869;-77
2023/03/22 04:11:50;;;;;;;;;41.50;37.00;;;;;10.01;45.59;99176.41;5067230;28;8862;-79
2023/03/22 04:14:21;;;;;;;;;43.00;38.00;;;;;10.00;45.76;99181.69;5067449;28;8877;-79
2023/03/22 04:16:53;;;;;;;;;41.50;37.00;;;;;9.95;45.97;99178.31;5050812;28;8889;-77
2023/03/22 04:19:23;;;;;;;;;49.25;40.00;;;;;9.97;45.83;99185.25;5084090;28;9006;-77
2023/03/22 04:21:52;;;;;;;;;54.00;42.25;;;;;9.95;46.14;99184.44;5085241;28;8864;-78
2023/03/22 04:24:22;;;;;;;;;52.75;43.00;;;;;9.95;46.33;99186.19;5070482;28;8867;-80
2023/03/22 04:26:53;;;;;;;;;62.50;51.75;;;;;9.97;46.17;99187.88;5087040;28;8863;-79
2023/03/22 04:29:31;;;;;;;;;58.25;47.25;;;;;9.91;46.60;99182.75;5090880;28;8862;-78
2023/03/22 04:32:15;;;;;;;;;53.75;45.50;;;;;9.85;46.80;99188.16;5050962;28;8974;-77
2023/03/22 04:34:45;;;;;;;;;49.75;41.75;;;;;9.74;47.28;99184.94;5051448;28;8882;-76
2023/03/22 04:37:17;;;;;;;;;54.75;44.75;;;;;9.83;46.80;99189.97;5081341;28;8847;-78
2023/03/22 04:40:08;;;;;;;;;51.00;43.75;;;;;9.37;48.41;99188.38;5087416;28;9727;-77
2023/03/22 04:42:46;;;;;;;;;57.25;46.75;;;;;9.60;47.74;99191.34;5026741;28;8914;-77
2023/03/22 04:45:28;;;;;;;;;52.75;42.00;;;;;9.68;47.72;99193.81;5067739;28;8854;-77
2023/03/22 04:48:02;;;;;;;;;63.00;51.00;;;;;9.72;47.54;99199.84;5084077;28;8861;-78
2023/03/22 04:50:32;;;;;;;;;62.00;49.50;;;;;9.74;47.49;99203.31;5050839;28;8865;-78
2023/03/22 04:53:04;;;;;;;;;56.25;46.75;;;;;9.74;47.65;99200.69;5050385;28;8866;-78
2023/03/22 04:55:34;;;;;;;;;55.00;45.75;;;;;9.76;47.49;99205.00;5083891;28;9695;-79
2023/03/22 04:58:02;;;;;;;;;60.75;51.75;;;;;9.74;47.86;99200.69;5033575;28;8912;-79
2023/03/22 05:00:33;;;;;;;;;57.25;47.75;;;;;9.76;48.09;99198.88;5067381;28;8858;-78
2023/03/22 05:03:03;;;;;;;;;24.75;18.25;;;;;9.81;48.01;99202.28;5050644;28;8870;-77
2023/03/22 05:05:49;;;;;;;;;55.00;46.75;;;;;9.95;47.93;99204.56;5066101;28;8846;-77
2023/03/22 05:08:20;;;;;;;;;65.00;51.67;;;;;9.85;48.20;99208.31;5047975;28;8844;-78
2023/03/22 05:10:51;;;;;;;;;72.33;56.67;;;;;9.83;48.44;99208.34;5059852;28;8972;-77
2023/03/22 05:13:20;;;;;;;;;62.00;48.50;;;;;9.89;48.29;99212.59;5068186;28;9135;-77
2023/03/22 05:15:51;;;;;;;;;56.75;46.50;;;;;9.96;48.20;99215.03;5051118;28;8849;-78
2023/03/22 05:18:25;;;;;;;;;52.50;45.25;;;;;10.00;48.26;99213.19;5066742;28;8862;-77
2023/03/22 05:20:58;;;;;;;;;54.75;47.00;;;;;9.82;48.75;99211.88;5032106;28;8933;-77
2023/03/22 05:23:27;;;;;;;;;86.25;71.50;;;;;9.94;48.41;99213.34;5048290;28;9002;-77
2023/03/22 05:26:00;;;;;;;;;67.33;54.33;;;;;10.01;48.05;99228.91;5053238;28;10088;-78
2023/03/22 05:28:30;;;;;;;;;170.50;154.75;;;;;10.11;48.08;99231.34;5062605;28;9090;-77
2023/03/22 05:31:24;;;;;;;;;61.00;49.00;;;;;10.04;48.58;99230.59;5048936;28;12363;-78
2023/03/22 05:33:57;;;;;;;;;58.75;49.00;;;;;10.17;48.11;99231.19;5062740;28;8874;-79
2023/03/22 05:36:29;;;;;;;;;54.25;46.00;;;;;10.31;47.84;99236.06;5068337;28;9038;-79
2023/03/22 05:39:14;;;;;;;;;59.00;48.50;;;;;10.10;47.96;99243.56;5084865;28;8854;-80
2023/03/22 05:41:45;;;;;;;;;58.75;48.75;;;;;10.13;48.47;99253.16;5060212;28;8843;-78
2023/03/22 05:44:14;;;;;;;;;59.50;48.00;;;;;9.44;50.24;99255.53;5056722;28;8858;-78
2023/03/22 05:46:54;;;;;;;;;58.00;46.50;;;;;9.64;49.81;99252.50;5035361;28;8843;-79
2023/03/22 05:49:30;;;;;;;;;55.25;47.00;;;;;9.57;49.99;99266.66;5083593;28;8873;-77
2023/03/22 05:52:03;;;;;;;;;56.50;47.25;;;;;9.49;50.32;99258.06;5082088;28;8895;-78
2023/03/22 05:54:45;;;;;;;;;56.50;45.75;;;;;9.43;50.29;99269.56;5090512;28;8944;-76
2023/03/22 05:57:15;;;;;;;;;56.00;45.50;;;;;9.71;49.15;99266.38;5084952;28;8859;-79
2023/03/22 05:59:44;;;;;;;;;50.75;44.50;;;;;9.82;49.01;99267.88;5069022;28;8945;-78
2023/03/22 06:02:21;;;;;;;;;49.75;42.75;;;;;10.00;48.47;99273.59;5098141;28;8966;-76
2023/03/22 06:04:51;;;;;;;;;54.25;43.75;;;;;9.94;48.45;99273.75;5066255;28;9624;-78
2023/03/22 06:07:21;;;;;;;;;45.25;40.25;;;;;10.07;48.79;99275.19;5070878;28;8855;-78
2023/03/22 06:09:57;;;;;;;;;46.50;41.00;;;;;9.71;48.77;99275.13;5059253;28;8860;-77
2023/03/22 06:12:30;;;;;;;;;56.75;44.00;;;;;9.88;48.26;99273.88;5103692;28;8851;-78
2023/03/22 06:15:17;;;;;;;;;49.25;41.25;;;;;10.08;47.54;99281.28;5097883;28;8908;-78
2023/03/22 06:18:11;;;;;;;;;47.50;41.00;;;;;9.68;48.41;99280.41;5068413;28;8870;-78
2023/03/22 06:20:44;;;;;;;;;54.25;44.25;;;;;9.89;48.00;99280.84;5101993;28;8842;-79
2023/03/22 06:23:21;;;;;;;;;46.75;41.25;;;;;9.67;48.77;99283.97;5068255;28;8858;-79
2023/03/22 06:25:50;;;;;;;;;45.25;40.00;;;;;9.84;48.33;99277.44;5084680;28;8955;-80
2023/03/22 06:28:20;;;;;;;;;53.00;41.75;;;;;10.09;47.38;99290.91;5102330;28;8888;-80
2023/03/22 06:30:51;;;;;;;;;52.25;42.00;;;;;10.21;47.26;99285.34;5030588;28;8862;-79
2023/03/22 06:33:30;;;;;;;;;21.50;18.25;;;;;10.47;46.58;99287.34;5061010;28;8850;-77
2023/03/22 06:36:06;;;;;;;;;48.25;41.00;;;;;10.62;45.78;99287.88;5059279;28;8840;-79
2023/03/22 06:38:51;;;;;;;;;45.50;39.25;;;;;10.78;45.03;99281.34;5054927;28;8920;-77
2023/03/22 06:41:20;;;;;;;;;50.50;41.75;;;;;10.36;46.14;99292.00;5062366;28;8933;-78
2023/03/22 06:43:51;;;;;;;;;43.25;38.75;;;;;10.55;45.49;99287.16;5026456;28;8869;-78
2023/03/22 06:46:40;;;;;;;;;52.50;39.50;;;;;9.67;47.47;99294.47;5031940;28;8899;-78
2023/03/22 06:49:28;;;;;;;;;45.25;38.25;;;;;9.88;46.71;99303.63;5039603;28;8852;-78
2023/03/22 06:51:58;;;;;;;;;48.50;39.75;;;;;9.80;47.54;99295.91;5003090;28;9047;-76
2023/03/22 06:54:28;;;;;;;;;44.25;40.50;;;;;10.13;46.87;99298.66;5028148;28;8858;-79
2023/03/22 06:56:56;;;;;;;;;43.75;37.25;;;;;10.03;47.01;99297.16;5019089;28;9026;-80
2023/03/22 06:59:26;;;;;;;;;38.25;35.75;;;;;10.42;45.82;99302.38;4981925;28;8947;-80
2023/03/22 07:01:54;;;;;;;;;33.75;33.25;;;;;10.68;44.89;99298.25;4968593;28;8949;-77
2023/03/22 07:04:24;;;;;;;;;37.75;36.00;;;;;10.63;45.00;99303.59;5027124;28;8852;-78
2023/03/22 07:06:55;;;;;;;;;45.25;37.25;;;;;10.64;44.87;99307.97;5000796;28;8839;-78
2023/03/22 07:09:39;;;;;;;;;50.50;41.25;;;;;11.12;44.45;99312.00;5045923;28;8843;-79
2023/03/22 07:12:08;;;;;;;;;45.25;38.75;;;;;11.00;44.72;99315.00;5018907;28;8859;-77
2023/03/22 07:14:38;;;;;;;;;46.25;38.00;;;;;10.66;44.66;99321.94;5065541;28;8884;-78
2023/03/22 07:17:45;;;;;;;;;31.25;30.75;;;;;10.76;44.01;99317.34;5056081;28;8859;-77
2023/03/22 07:20:15;;;;;;;;;36.75;33.00;;;;;10.94;43.28;99326.53;5047635;28;8850;-79
2023/03/22 07:22:45;;;;;;;;;31.75;31.25;;;;;11.22;42.77;99323.16;5083432;28;8974;-77
2023/03/22 07:25:15;;;;;;;;;31.00;30.50;;;;;11.74;42.28;99324.31;5067110;28;8871;-76
2023/03/22 07:27:44;;;;;;;;;34.75;31.75;;;;;11.10;43.18;99326.97;5082105;28;9122;-77
2023/03/22 07:30:14;;;;;;;;;43.50;35.75;;;;;11.52;42.25;99329.31;5029637;28;8958;-80
2023/03/22 07:32:46;;;;;;;;;35.00;31.00;;;;;11.16;42.31;99339.97;5047675;28;8893;-81
2023/03/22 07:35:17;;;;;;;;;37.25;34.00;;;;;11.01;42.46;99336.00;5030844;28;8937;-80
2023/03/22 07:37:50;;;;;;;;;28.25;27.75;;;;;11.40;42.33;99330.53;5030439;28;8870;-79
2023/03/22 07:40:25;;;;;;;;;31.00;28.25;;;;;12.04;41.27;99324.34;5067169;28;8863;-82
2023/03/22 07:42:57;;;;;;;;;36.25;30.75;;;;;12.45;40.30;99324.81;5084527;28;8905;-81
2023/03/22 07:45:45;;;;;;;;;39.50;35.25;;;;;11.64;41.64;99333.41;5040249;28;8888;-81
2023/03/22 07:48:37;;;;;;;;;31.00;29.75;;;;;12.33;40.55;99334.84;5024211;28;8854;-80
2023/03/22 07:51:42;;;;;;;;;21.25;18.50;;;;;11.58;42.00;99331.81;5026624;28;9672;-80
2023/03/22 07:54:12;;;;;;;;;36.00;34.50;;;;;11.65;41.76;99337.75;4945387;28;8924;-82
2023/03/22 07:56:58;;;;;;;;;39.50;35.75;;;;;11.63;42.51;99337.78;5026144;28;8832;-80
2023/03/22 07:59:27;;;;;;;;;39.00;34.00;;;;;12.29;41.23;99332.34;4993625;28;8907;-77
2023/03/22 08:01:56;;;;;;;;;37.75;36.00;;;;;12.85;40.16;99332.31;5010042;28;8880;-78
2023/03/22 08:04:30;;;;;;;;;40.75;35.00;;;;;12.62;40.03;99324.28;5009989;28;8877;-81
2023/03/22 08:07:10;;;;;;;;;34.50;32.50;;;;;13.16;39.07;99320.69;4993859;28;8849;-78
2023/03/22 08:09:40;;;;;;;;;36.50;33.25;;;;;13.25;38.71;99328.28;4993558;28;8833;-79
2023/03/22 08:12:09;;;;;;;;;37.00;33.25;;;;;12.81;39.92;99329.81;5009480;28;8923;-80
2023/03/22 08:14:39;;;;;;;;;35.50;33.25;;;;;13.16;39.33;99323.31;5025845;28;8868;-78
2023/03/22 08:17:16;;;;;;;;;38.75;34.50;;;;;13.38;38.94;99325.22;5025719;28;8907;-78
2023/03/22 08:19:45;;;;;;;;;43.50;38.00;;;;;12.96;39.76;99337.22;4960681;28;8873;-78
2023/03/22 08:22:24;;;;;;;;;42.25;36.75;;;;;12.76;40.57;99335.22;5009017;28;8903;-78
2023/03/22 08:25:18;;;;;;;;;35.00;33.25;;;;;12.94;40.59;99339.06;4947762;28;8895;-79
2023/03/22 08:27:47;;;;;;;;;45.25;35.00;;;;;13.28;39.89;99333.47;4910810;28;8920;-81
2023/03/22 08:30:16;;;;;;;;;37.25;34.50;;;;;12.86;39.56;99341.97;4928723;28;8864;-80
2023/03/22 08:32:45;;;;;;;;;36.50;34.75;;;;;12.65;39.91;99338.19;4946935;28;8880;-78
2023/03/22 08:35:14;;;;;;;;;34.00;32.50;;;;;12.86;39.91;99344.59;4963670;28;9007;-77
2023/03/22 08:37:43;;;;;;;;;32.50;31.00;;;;;12.54;40.54;99338.56;4963828;28;8899;-78
2023/03/22 08:40:12;;;;;;;;;38.25;33.25;;;;;11.85;41.89;99350.38;4931816;28;8872;-80
2023/03/22 08:42:47;;;;;;;;;45.50;36.50;;;;;11.89;41.79;99357.28;4917514;28;8880;-79
2023/03/22 08:45:17;;;;;;;;;42.00;36.25;;;;;12.57;40.71;99344.66;4916069;28;8848;-77
2023/03/22 08:47:53;;;;;;;;;41.75;37.00;;;;;12.01;41.58;99346.34;4932183;28;8958;-80
2023/03/22 08:50:25;;;;;;;;;41.00;35.75;;;;;12.41;40.78;99346.91;4915834;28;8990;-77
2023/03/22 08:53:12;;;;;;;;;41.50;37.25;;;;;12.47;40.78;99354.63;4931302;28;8864;-80
2023/03/22 08:55:45;;;;;;;;;39.00;35.75;;;;;12.20;42.23;99349.31;4945101;28;8868;-79
2023/03/22 08:58:18;;;;;;;;;43.50;35.75;;;;;12.22;41.89;99359.78;4920461;28;9370;-78
2023/03/22 09:01:06;;;;;;;;;47.50;39.50;;;;;13.16;40.48;99355.00;4926461;28;8856;-78
2023/03/22 09:03:44;;;;;;;;;48.00;38.75;;;;;13.37;39.69;99353.38;5070298;28;8871;-78
2023/03/22 09:06:13;;;;;;;;;42.25;37.75;;;;;13.92;38.72;99347.03;5103886;28;8956;-79
2023/03/22 09:08:44;;;;;;;;;45.50;36.50;;;;;14.49;37.98;99345.69;5070182;28;8982;-79
2023/03/22 09:11:15;;;;;;;;;48.00;36.75;;;;;14.86;36.63;99355.63;5103484;28;8847;-79
2023/03/22 09:13:50;;;;;;;;;47.00;39.75;;;;;13.53;38.81;99352.84;5086939;28;8876;-78
2023/03/22 09:16:19;;;;;;;;;49.00;39.00;;;;;13.14;40.04;99359.47;5103702;28;8859;-79
2023/03/22 09:18:49;;;;;;;;;45.25;38.75;;;;;13.21;40.07;99358.34;5103403;28;8859;-77
2023/03/22 09:21:21;;;;;;;;;53.50;41.75;;;;;13.13;40.77;99360.41;5086712;28;8960;-79
2023/03/22 09:23:54;;;;;;;;;50.50;39.25;;;;;13.75;39.10;99359.06;5069758;28;8852;-78
2023/03/22 09:26:30;;;;;;;;;47.75;40.75;;;;;13.08;40.56;99363.19;5086061;28;8948;-78
2023/03/22 09:29:02;;;;;;;;;50.50;41.00;;;;;13.08;41.05;99354.41;5086878;28;8852;-78
2023/03/22 09:31:30;;;;;;;;;47.00;39.25;;;;;12.90;40.79;99356.75;5103209;28;8859;-78
2023/03/22 09:34:15;;;;;;;;;49.00;40.50;;;;;12.77;41.75;99359.81;5069280;28;8980;-79
2023/03/22 09:36:44;;;;;;;;;48.50;40.25;;;;;12.72;41.50;99358.19;5035129;28;8868;-80
2023/03/22 09:39:15;;;;;;;;;48.50;40.50;;;;;12.68;42.05;99361.00;5086594;28;8886;-81
2023/03/22 09:41:50;;;;;;;;;48.00;39.00;;;;;12.79;41.50;99352.69;5107316;28;8860;-77
2023/03/22 09:44:28;;;;;;;;;48.25;41.25;;;;;12.83;41.10;99354.34;5107154;28;8844;-78
2023/03/22 09:47:00;;;;;;;;;48.75;39.00;;;;;12.97;41.05;99346.84;5107158;28;8907;-78
2023/03/22 09:49:40;;;;;;;;;47.00;38.75;;;;;12.17;42.49;99348.56;5091254;28;8882;-78
2023/03/22 09:52:21;;;;;;;;;49.50;39.50;;;;;12.05;43.13;99344.50;5074579;28;8848;-78
2023/03/22 09:54:50;;;;;;;;;44.25;37.50;;;;;12.45;42.24;99343.28;5091663;28;8924;-79
2023/03/22 09:57:29;;;;;;;;;44.00;38.00;;;;;12.63;41.60;99342.66;5073715;28;8855;-79
2023/03/22 10:00:10;;;;;;;;;45.50;39.25;;;;;13.01;40.81;99344.97;5074621;28;8847;-79
2023/03/22 10:02:53;;;;;;;;;40.75;34.75;;;;;13.39;40.00;99329.56;5090599;28;8851;-78
2023/03/22 10:05:29;;;;;;;;;50.50;41.50;;;;;12.75;41.66;99338.78;5092797;28;8866;-78
2023/03/22 10:08:32;;;;;;;;;49.75;42.25;;;;;12.76;41.68;99335.22;5091321;28;8859;-77
2023/03/22 10:11:02;;;;;;;;;49.25;40.50;;;;;12.67;41.39;99335.50;5090147;28;8843;-79
2023/03/22 10:13:39;;;;;;;;;48.00;37.50;;;;;13.38;40.27;99327.84;5073567;28;8878;-79
2023/03/22 10:16:13;;;;;;;;;46.50;40.00;;;;;13.36;40.99;99327.91;5053675;28;8913;-80
2023/03/22 10:18:47;;;;;;;;;38.50;35.00;;;;;13.26;39.71;99329.13;5070637;28;8854;-79
2023/03/22 10:21:19;;;;;;;;;44.50;36.00;;;;;13.94;38.08;99330.22;5071325;28;8861;-81
2023/03/22 10:23:54;;;;;;;;;40.00;35.75;;;;;14.44;37.62;99324.69;5019478;28;8984;-81
2023/03/22 10:26:29;;;;;;;;;39.00;35.75;;;;;13.95;38.36;99329.28;5071287;28;8850;-81
2023/03/22 10:29:02;;;;;;;;;41.00;35.00;;;;;13.60;38.70;99327.91;5069733;28;9647;-79
2023/03/22 10:31:34;;;;;;;;;41.25;35.75;;;;;14.28;38.00;99323.56;5070668;28;8877;-78
2023/03/22 10:34:06;;;;;;;;;42.75;35.50;;;;;14.74;37.58;99312.97;5070741;28;8984;-79
2023/03/22 10:36:39;;;;;;;;;37.75;33.50;;;;;15.08;36.73;99315.03;5070691;28;8915;-80
2023/03/22 10:39:17;;;;;;;;;34.25;32.00;;;;;15.45;35.57;99305.44;5051162;28;8884;-81
2023/03/22 10:41:47;;;;;;;;;30.25;29.75;;;;;15.63;34.89;99304.63;5069504;28;8869;-79
2023/03/22 10:44:19;;;;;;;;;28.00;26.00;;;;;16.06;34.30;99301.78;5109259;28;8880;-81
2023/03/22 10:46:52;;;;;;;;;32.50;31.00;;;;;16.15;33.77;99298.69;5081437;28;8850;-81
2023/03/22 10:49:27;;;;;;;;;27.75;27.75;;;;;16.45;33.36;99303.47;5071585;28;8976;-79
2023/03/22 10:52:00;;;;;;;;;29.50;29.50;;;;;16.52;33.41;99302.22;5067266;28;9680;-80
2023/03/22 10:54:29;;;;;;;;;32.50;29.25;;;;;16.70;33.31;99308.44;5035070;28;8854;-80
2023/03/22 10:56:58;;;;;;;;;32.50;29.50;;;;;15.86;33.87;99309.81;5051663;28;8962;-80
2023/03/22 10:59:44;;;;;;;;;33.50;31.25;;;;;15.89;34.09;99299.94;5070392;28;8870;-79
2023/03/22 11:02:21;;;;;;;;;35.50;32.00;;;;;16.06;34.07;99290.31;5053206;28;9588;-79
2023/03/22 11:04:52;;;;;;;;;28.00;26.25;;;;;16.48;33.44;99292.72;5067701;28;9037;-79
2023/03/22 11:07:31;;;;;;;;;29.75;28.75;;;;;16.76;32.47;99288.69;5076573;28;8865;-79
2023/03/22 11:10:22;;;;;;;;;34.00;32.00;;;;;16.38;33.27;99294.94;5070866;28;8916;-79
2023/03/22 11:12:54;;;;;;;;;32.00;29.00;;;;;16.91;32.68;99285.25;5087833;28;8884;-77
2023/03/22 11:15:27;;;;;;;;;26.50;25.00;;;;;17.30;32.09;99283.25;5087406;28;8869;-80
2023/03/22 11:18:04;;;;;;;;;28.50;26.25;;;;;17.48;31.27;99281.44;5030481;28;8862;-80
2023/03/22 11:20:34;;;;;;;;;22.25;21.25;;;;;17.75;31.20;99277.25;5046874;28;8981;-79
2023/03/22 11:23:05;;;;;;;;;24.50;24.25;;;;;18.06;30.10;99275.59;5047051;28;8916;-79
2023/03/22 11:25:36;;;;;;;;;34.75;30.25;;;;;17.25;31.39;99272.88;5047148;28;9612;-80
2023/03/22 11:28:15;;;;;;;;;28.25;23.25;;;;;17.31;31.18;99274.38;5046794;28;8870;-79
2023/03/22 11:30:59;;;;;;;;;26.25;25.00;;;;;17.55;30.49;99266.84;4981851;28;8976;-78
2023/03/22 11:33:30;;;;;;;;;19.20;19.00;;;;;17.03;29.76;99265.16;5046628;28;8874;-79
2023/03/22 11:36:02;;;;;;;;;18.00;17.40;;;;;17.27;29.13;99271.00;5004388;28;8937;-81
2023/03/22 11:38:37;;;;;;;;;20.80;17.80;;;;;17.74;28.88;99264.03;5026542;28;8851;-79
2023/03/22 11:41:11;;;;;;;;;19.20;18.80;;;;;18.12;29.09;99251.28;5026468;28;8886;-80
2023/03/22 11:43:47;;;;;;;;;21.50;20.75;;;;;17.18;29.35;99267.00;4978783;28;8859;-79
2023/03/22 11:46:18;;;;;;;;;18.20;16.00;;;;;16.29;29.78;99263.53;4977805;28;8913;-80
2023/03/22 11:48:51;;;;;;;;;15.75;13.75;;;;;16.49;29.78;99259.06;5027162;28;8871;-78
2023/03/22 11:51:29;;;;;;;;;22.00;22.00;;;;;16.77;30.12;99254.06;5026781;28;8887;-80
2023/03/22 11:54:06;;;;;;;;;25.50;23.50;;;;;16.36;30.77;99258.78;4994429;28;8844;-77
2023/03/22 11:56:41;;;;;;;;;21.25;21.25;;;;;16.13;31.69;99258.13;5059831;28;8861;-81
2023/03/22 11:59:15;;;;;;;;;25.50;23.25;;;;;15.75;32.24;99249.34;5049412;28;8864;-80
2023/03/22 12:01:49;;;;;;;;;15.60;14.60;;;;;15.72;29.98;99260.09;5047792;28;8958;-80